Map

Track Data

SID SEASON NUMBER BASIN SUBBASIN NAME ISO_TIME NATURE LAT LON WMO_WIND WMO_PRES WMO_AGENCY TRACK_TYPE DIST2LAND LANDFALL IFLAG USA_AGENCY USA_ATCF_ID USA_LAT USA_LON USA_RECORD USA_STATUS USA_WIND USA_PRES USA_SSHS USA_R34_NE USA_R34_SE USA_R34_SW USA_R34_NW USA_R50_NE USA_R50_SE USA_R50_SW USA_R50_NW USA_R64_NE USA_R64_SE USA_R64_SW USA_R64_NW USA_POCI USA_ROCI USA_RMW USA_EYE TOKYO_LAT TOKYO_LON TOKYO_GRADE TOKYO_WIND TOKYO_PRES TOKYO_R50_DIR TOKYO_R50_LONG TOKYO_R50_SHORT TOKYO_R30_DIR TOKYO_R30_LONG TOKYO_R30_SHORT TOKYO_LAND CMA_LAT CMA_LON CMA_CAT CMA_WIND CMA_PRES HKO_LAT HKO_LON HKO_CAT HKO_WIND HKO_PRES NEWDELHI_LAT NEWDELHI_LON NEWDELHI_GRADE NEWDELHI_WIND NEWDELHI_PRES NEWDELHI_CI NEWDELHI_DP NEWDELHI_POCI REUNION_LAT REUNION_LON REUNION_TYPE REUNION_WIND REUNION_PRES REUNION_TNUM REUNION_CI REUNION_RMW REUNION_R34_NE REUNION_R34_SE REUNION_R34_SW REUNION_R34_NW REUNION_R50_NE REUNION_R50_SE REUNION_R50_SW REUNION_R50_NW REUNION_R64_NE REUNION_R64_SE REUNION_R64_SW REUNION_R64_NW BOM_LAT BOM_LON BOM_TYPE BOM_WIND BOM_PRES BOM_TNUM BOM_CI BOM_RMW BOM_R34_NE BOM_R34_SE BOM_R34_SW BOM_R34_NW BOM_R50_NE BOM_R50_SE BOM_R50_SW BOM_R50_NW BOM_R64_NE BOM_R64_SE BOM_R64_SW BOM_R64_NW BOM_ROCI BOM_POCI BOM_EYE BOM_POS_METHOD BOM_PRES_METHOD NADI_LAT NADI_LON NADI_CAT NADI_WIND NADI_PRES WELLINGTON_LAT WELLINGTON_LON WELLINGTON_WIND WELLINGTON_PRES DS824_LAT DS824_LON DS824_STAGE DS824_WIND DS824_PRES TD9636_LAT TD9636_LON TD9636_STAGE TD9636_WIND TD9636_PRES TD9635_LAT TD9635_LON TD9635_WIND TD9635_PRES TD9635_ROCI NEUMANN_LAT NEUMANN_LON NEUMANN_CLASS NEUMANN_WIND NEUMANN_PRES MLC_LAT MLC_LON MLC_CLASS MLC_WIND MLC_PRES USA_GUST BOM_GUST BOM_GUST_PER REUNION_GUST REUNION_GUST_PER USA_SEAHGT USA_SEARAD_NE USA_SEARAD_SE USA_SEARAD_SW USA_SEARAD_NW STORM_SPEED STORM_DIR
1887021S18040 1887 5 SI MM NOT_NAMED 1887-01-21 06:00:00 NR -17.6000 39.8000 reunion main 100 100 _____O____O___ -1 -17.4000 40.0000 99 9.90000 -17.8000 39.6000 7 3 206
1887021S18040 1887 5 SI MM NOT_NAMED 1887-01-21 09:00:00 NR -17.7127 39.7434 main 100 100 _____P____P___ -1 -17.4056 39.9624 99 -18.0199 39.5244 7 3 208
1887021S18040 1887 5 SI MM NOT_NAMED 1887-01-21 12:00:00 NR -17.8286 39.6707 main 109 109 _____P____P___ -1 -17.4154 39.9225 99 -18.2419 39.4190 7 3 215
1887021S18040 1887 5 SI MM NOT_NAMED 1887-01-21 15:00:00 NR -17.9508 39.5660 main 123 119 _____P____P___ -1 -17.4337 39.8778 99 -18.4679 39.2542 7 4 224
1887021S18040 1887 5 SI MM NOT_NAMED 1887-01-21 18:00:00 NR -18.0823 39.4130 main 127 124 _____P____O___ -1 -17.4646 39.8260 99 -18.7000 39.0000 7 4 231
1887021S18040 1887 5 SI MM NOT_NAMED 1887-01-21 21:00:00 NR -18.2259 39.2058 main 134 134 _____P____P___ -1 -17.5125 39.7648 99 -18.9393 38.6468 7 5 234
1887021S18040 1887 5 SI MM NOT_NAMED 1887-01-22 00:00:00 NR -18.3836 38.9792 main 148 146 _____P____P___ -1 -17.5816 39.6916 99 -19.1857 38.2668 7 5 231
1887021S18040 1887 5 SI MM NOT_NAMED 1887-01-22 03:00:00 NR -18.5575 38.7787 main 163 158 _____P____P___ -1 -17.6760 39.6042 99 -19.4391 37.9533 7 5 220
1887021S18040 1887 5 SI MM NOT_NAMED 1887-01-22 06:00:00 NR -18.7500 38.6500 reunion main 169 169 _____O____O___ -1 -17.8000 39.5000 99 9.90000 -19.7000 37.8000 7 4 195
1887021S18040 1887 5 SI MM NOT_NAMED 1887-01-22 09:00:00 NR -18.9603 38.6684 main 200 200 _____P____P___ -1 -17.9565 39.3782 99 -19.9641 37.9585 7 5 167
1887021S18040 1887 5 SI MM NOT_NAMED 1887-01-22 12:00:00 NR -19.1895 38.7613 main 225 225 _____P____P___ -1 -18.1432 39.2445 99 -20.2358 38.2780 7 5 157
1887021S18040 1887 5 SI MM NOT_NAMED 1887-01-22 15:00:00 NR -19.4355 38.8824 main 247 247 _____P____P___ -1 -18.3566 39.1061 99 -20.5145 38.6587 7 6 158
1887021S18040 1887 5 SI MM NOT_NAMED 1887-01-22 18:00:00 NR -19.6965 38.9851 main 276 276 _____P____O___ -1 -18.5931 38.9702 99 -20.8000 39.0000 7 5 171
1887021S18040 1887 5 SI MM NOT_NAMED 1887-01-22 21:00:00 NR -19.9340 38.9678 main 291 291 _____P____P___ -1 -18.8491 38.8442 99 -21.0188 39.0914 7 5 185
1887021S18040 1887 5 SI MM NOT_NAMED 1887-01-23 00:00:00 NR -20.1887 38.9365 main 306 306 _____P____P___ -1 -19.1213 38.7355 99 -21.2562 39.1374 7 6 183
1887021S18040 1887 5 SI MM NOT_NAMED 1887-01-23 03:00:00 NR -20.4858 38.9330 main 325 325 _____P____P___ -1 -19.4061 38.6516 99 -21.5655 39.2145 7 7 176
1887021S18040 1887 5 SI MM NOT_NAMED 1887-01-23 06:00:00 NR -20.8500 39.0000 reunion main 353 353 _____O____O___ -1 -19.7000 38.6000 99 9.90000 -22.0000 39.4000 7 8 167
1887021S18040 1887 5 SI MM NOT_NAMED 1887-01-23 09:00:00 NR -21.2610 39.1286 main 385 385 _____P____P___ -1 -19.9141 38.5139 99 -22.6078 39.7432 7 9 161
1887021S18040 1887 5 SI MM NOT_NAMED 1887-01-23 12:00:00 NR -21.7368 39.3306 main 395 370 _____P____P___ -1 -20.1323 38.4483 99 -23.3412 40.2129 7 11 156
1887021S18040 1887 5 SI MM NOT_NAMED 1887-01-23 15:00:00 NR -22.2602 39.6085 main 370 341 _____P____P___ -1 -20.3664 38.4158 99 -24.1540 40.8011 7 12 151
1887021S18040 1887 5 SI MM NOT_NAMED 1887-01-23 18:00:00 NR -22.8143 39.9645 main 333 307 _____P____O___ -1 -20.6287 38.4290 99 -25.0000 41.5000 7 13 147
1887021S18040 1887 5 SI MM NOT_NAMED 1887-01-23 21:00:00 NR -23.3861 40.4000 main 312 299 _____P____P___ -1 -20.9311 38.5008 99 -25.8411 42.2992 7 10 144
1887021S18040 1887 5 SI MM NOT_NAMED 1887-01-24 00:00:00 NR -23.5936 40.5881 main 299 299 _____P____P___ -1 -21.2858 38.6441 99 -26.6708 43.1802 7 3 141
1887021S18040 1887 5 SI MM NOT_NAMED 1887-01-24 03:00:00 NR -23.6332 40.6221 main 299 299 _____P____P___ -1 -21.7048 38.8725 99 -27.4900 44.1213 7 3 313
1887021S18040 1887 5 SI MM NOT_NAMED 1887-01-24 06:00:00 NR -23.4200 40.3800 reunion main 312 312 _____O____O___ -1 -22.2000 39.2000 99 9.90000 -28.3000 45.1000 7 11 312
1887021S18040 1887 5 SI MM NOT_NAMED 1887-01-24 09:00:00 NR -22.9077 39.7445 main 365 319 _____P________ -1 -22.9077 39.7445 99 7 3 176
1887021S18040 1887 5 SI MM NOT_NAMED 1887-01-24 12:00:00 NR -23.7047 40.4099 main 322 267 _____P________ -1 -23.7047 40.4099 99 7 21 142
1887021S18040 1887 5 SI MM NOT_NAMED 1887-01-24 15:00:00 NR -24.5537 41.1620 main 259 206 _____P________ -1 -24.5537 41.1620 99 7 22 140
1887021S18040 1887 5 SI MM NOT_NAMED 1887-01-24 18:00:00 NR -25.4175 41.9650 main 202 179 _____P________ -1 -25.4175 41.9650 99 23 139
1887021S18040 1887 5 SI MM NOT_NAMED 1887-01-24 21:00:00 NR -26.2594 42.7811 main 188 185 _____P________ -1 -26.2594 42.7811 99 22 138
1887021S18040 1887 5 SI MM NOT_NAMED 1887-01-25 00:00:00 NR -27.0434 43.5703 main 205 205 _____P________ -1 -27.0434 43.5703 99 20 138
1887021S18040 1887 5 SI MM NOT_NAMED 1887-01-25 03:00:00 NR -27.7348 44.2911 main 250 250 _____P________ -1 -27.7348 44.2911 99 17 137
1887021S18040 1887 5 SI MM NOT_NAMED 1887-01-25 06:00:00 NR -28.3000 44.9000 reunion main 303 303 _____O________ -1 -28.3000 44.9000 99 9.90000 14 136
1887021S18040 1887 5 SI MM NOT_NAMED 1887-01-25 09:00:00 NR -28.7155 45.3633 main 346 346 _____P________ -1 -28.7155 45.3633 99 10 135
1887021S18040 1887 5 SI MM NOT_NAMED 1887-01-25 12:00:00 NR -28.9936 45.6880 main 380 380 _____P________ -1 -28.9936 45.6880 99 6 134
1887021S18040 1887 5 SI MM NOT_NAMED 1887-01-25 15:00:00 NR -29.1550 45.8923 main 403 403 _____P________ -1 -29.1550 45.8923 99 4 130
1887021S18040 1887 5 SI MM NOT_NAMED 1887-01-25 18:00:00 NR -29.2198 45.9956 main 405 405 _____P________ -1 -29.2198 45.9956 99 1 115
1887021S18040 1887 5 SI MM NOT_NAMED 1887-01-25 21:00:00 NR -29.2074 46.0177 main 405 393 _____P________ -1 -29.2074 46.0177 99 1 0
1887021S18040 1887 5 SI MM NOT_NAMED 1887-01-26 00:00:00 NR -29.1372 45.9788 main 393 381 _____P________ -1 -29.1372 45.9788 99 2 331
1887021S18040 1887 5 SI MM NOT_NAMED 1887-01-26 03:00:00 NR -29.0283 45.8995 main 381 369 _____P________ -1 -29.0283 45.8995 99 3 326
1887021S18040 1887 5 SI MM NOT_NAMED 1887-01-26 06:00:00 NR -28.9000 45.8000 reunion main 369 _____O________ -1 -28.9000 45.8000 99 9.90000 3 324

About IBTrACS Database

This database is a web-friendly format of International Best Track Archive for Climate Stewardship (IBTrACS), a global best track data archive curated by NOAA dating back to 1842.

Updated: 2021-11-26